Timeline UpdatesTrip UpdatesNews PostsPvt Posts♥♥Travel TipsAdmin PostsConv PostsFollowed PostsChat RequestsBlog PostsPNR Posts

Disclaimer
Search
 
 
Sun Oct 26, 2014 06:35:54 ISTHomeTrainsΣChainsAtlasPNRForumGalleryNewsFAQTripsMembersLoginFeedback
No Recent News for this Train
Other Trains in the News **new
Latest...
Monsoon TT effective from 1/7/14-30/9/14.
Tue Jul 01, 2014 (08:30PM)
⇐ Return Journey: Train# 16338

16337/Okha-Ernakulam Express

NO Time-Table Change.
Sep 01 2014 (11:49PM)
Change Departure Station:
Change Arrival Station:
Post a Train Travel TipPost a Train Travel Tip **new
Post a Comment/Question/Picture/VideoPost a Comment/Question/Picture/Video
Pantry/Catering
✓ Pantry Car Avbl
✓ Catering Avbl
RSA - Rake Sharing
12683/84 Ernakulam Bangalore Express
Rake/Coach Composition
SLR-UR-A1-B2-B1-S12-S11-PC-S10-S9-S8-S7-S6-S5-S4-S3-S2-S1-UR-UR-SLR.; Author: Mahesh Kavthankar.; Entry# 276086.
Loco
ERS WDM3A
News    PNR    Forum    Time-Table    Availability    Fare Chart    Map    Arr/Dep History    Trips    Gallery    ΣChains    X/O    Timeline    
Travel Time: 41h 8m    36 halts    Distance: 1992 km    Avg Speed: 48 km/hr
Type: Mail/Express
Zone: SR/Southern
Departs @ 02:00 (Avg 9m late)
Platform# 1
 M    S
Okha/OKHA 
Arrives @ 19:08 +1 night (Avg 37m late)
Platform# 2
S T    
Thalassery/TLY 

36 halts. 257 intermediate Stations between Okha and Thalassery

Show ALL intermediate Stations  

#TrkCodeStation NameX/OArrivesAvgDepartsAvgHaltPFDay#KmSpeedElevZoneAddress
1|--|OKHAOkha (3)»  -02:00+9110.0615mWROkha, Gujarat
2|--|DWKDwarka (2)  02:28+1202:30+142m--128.65914mWRDwarka, Gujarat
3|--|KMBLKhambhalia  03:56+803:58+102m--1112.74849mWRKhambhalia, Gujarat
4|--|JAMJamnagar (2)  05:06+405:08+162m--1167.04014mWRJamnagar, Gujarat
5|--|HAPAHapa (3)05:21+505:23+132m--1175.76516mWRJamnagar, Gujarat
6|--|RJTRajkot Junction (5)X  06:33+906:35+152m11251.661128mWRRajkot, Gujarat
7|-=!SUNRSurendranagar Junction (4)X  08:30+2108:32+222m--1367.65072mWRSurendra Nagar, Gujarat
8|==|VGViramgam Junction (5)  09:50+2109:52+222m21433.15429mWRViramgam, Gujarat
9/==/ADIAhmedabad Junction (12)X  11:05+1911:25+2220m51498.56251mWRAhmedabad, Gujarat
10/==/ANNDAnand Junction (6)X  12:27+3312:29+342m11562.55244mWRAnand, Gujarat
11/==/BRCVadodara Junction (7)X  13:10+3713:12+462m11598.37036mWRVadodara 390005, Gujarat
12/==/AKVAnkleshwar Junction (4)X  14:20+5014:22+442m21678.14219mWRAnkleshwar, Gujarat
13/==/STSurat (4)X  15:33+2815:35+392m21728.15719mWRSurat 395001, Gujarat
14/==/NVSNavsari (3)  16:06+3916:08+392m21757.75914mWRNavsari, Gujarat
15/==/BLValsad (3)X  16:48+3816:53+385m31796.84715mWRValsad, Gujarat
16/==/BORBoisar (3)X18:57+1318:59+152m--1893.33417mWRBoisar Tel.no-02525-266626, Maharashtra
17/==/BSRVasai Road (7)  20:30+920:40+1110m71944.1637mWRVasai 401202, Maharashtra
18/==/BIRDBhiwandi Road (4)  21:06+1121:08+122m11971.44226mCRBhiwandi, Maharashtra
19|--|PNVLPanvel Junction (7)  22:00+2522:05+305m711008.05010mCRPanvel, Maharashtra
20|--|MNIMangaon (2)  00:12+1:1800:14+1:482m121114.25212mKRMangaon - 402104, Maharashtra
21|--|RNRatnagiri (3)  03:35+1:2403:40+1:265m121287.155129mKRRatnagiri 415612, Maharashtra
22|--|KKWKankavali (2)  05:42+1:4705:44+1:542m121398.55645mKRKankavli - 416602, Maharashtra
23|--|THVMThivim (2)  07:08+1:5507:10+2:032m121477.02121mKRThivim - 403502, Goa
24|--|MAOMadgaon Junction (3)  09:20+1:0809:30+1:1310m121521.95711mKRMadgaon 403601, Goa
25|--|KAWRKarwar (2)  10:35+1:1710:37+1:182m121583.35214mKRKarwar, Karnataka
26|--|HNAHonnavar (2)X  11:56+1:1111:58+1:132m--21652.2614mKRUttara Kannada Dist, Karnataka
27|--|BTJLBhatkal (2)  12:38+5112:40+512m121693.15716mKRBhatkal - 581320, Karnataka
28|--|BYNRByndoor Mookambika Road (1)  12:56+1:2612:58+1:262m121708.37210mKRUdupi Dist. 576214, Karnataka
29|--|KUDAKundapura (2)  13:26+1:1013:28+1:132m121741.85613mKRKundapura - 576211, Karnataka
30|--|UDUdupi (2)X  14:02+1:0314:04+1:062m121773.85218mKRUdupi, Karnataka
31|--|SLSurathkal (1)  14:52+1:1014:54+1:102m121815.71922mKRSurathkal, Karnataka
32|--|MAJNMangalore Junction (3)  16:00+4216:10+4610m121836.25124mSRMangalore 575001, Karnataka
33%==%KGQKasaragod (3)  17:08+4317:10+442m--21885.37718mSRTel: 04994 220800, Kerala
34%==%KZEKanhangad (3)X  17:28+4617:30+462m--21908.47615mSRKanhangad, Kerala
35%==%PAYPayyanur (3)  17:53+5317:55+522m221937.7770mSRKannur District, Kerala
36%==%KPQKannapuram (2)XO  18:10+5418:12+532m221956.9269mSRKannur District, Kerala
37%==%CANKannur Main (4)X  18:45+3318:50+355m321971.36914mSRKannur Tel: 0497 2705555, Kerala
38%==%TLYThalassery (2)•  19:08+3719:10+362m221992.0669mSRKannur, Kerala
39%==%BDJVadakara (2)  19:30+3519:32+352m122014.18211mSRCalicut / Station Ph No : 0496-2524254, Kerala
40%==%QLDKoyilandy (3)  19:48+4319:50+442m222036.14211mSRQuilandi, Kerala
41%==%CLTKozhikode Main (4)  20:25+3220:30+365m122060.44611mSRCalicut Tel: 0495 2701234, Kerala
42%==%FKFerok (2)  20:43+4120:45+452m122070.47019mSRFeroke, Kerala
43%==%PGIParappangadi (2)  20:58+5321:00+542m122085.65419mSRParappanangadi, Kerala
44%==%TIRTirur (3)  21:18+4921:20+502m322101.6509mSRTel: 0494 2422240, Kerala
45%==%KTUKuttippuram (2)  21:38+5021:40+502m222116.78517mSRKuttippuram, Kerala
46%==%PTBPattambi (2)XO  21:53+5721:55+562m222135.21321mSRPattambi, Kerala
47%==%SRRShoranur Junction (7)O  22:50+2023:00+1910m422146.76626mSRShoranur ph.no 0466-2222913, Kerala
48/==/TCRThrissur (4)X  23:30+3223:33+313m122179.7706mSRThrissur Tel: 0487 2423150, Kerala
49/==/AWYAluva (3)  00:20+4000:22+402m132234.32212mSRPh: 0484-2624141, Kerala
50/=-/ERSErnakulam Junction (South) (6)  01:15+18-532253.7-3mSRErnakulam 682016, Kerala
Scroll to Top
Scroll to Bottom